createdAt,value
2023-01-30T00:00:08.251Z,3.22
2023-01-30T00:02:53.843Z,3.16
2023-01-30T00:05:39.490Z,3.15
2023-01-30T00:08:25.334Z,3.11
2023-01-30T00:11:13.030Z,3.05
2023-01-30T00:14:01.529Z,3.02
2023-01-30T00:16:47.563Z,3.02
2023-01-30T00:19:33.386Z,3.03
2023-01-30T00:22:19.235Z,3.08
2023-01-30T00:25:05.616Z,3.10
2023-01-30T00:27:51.667Z,3.11
2023-01-30T00:30:37.492Z,3.12
2023-01-30T00:33:25.484Z,3.14
2023-01-30T00:36:11.662Z,3.12
2023-01-30T00:38:59.004Z,3.17
2023-01-30T00:42:08.875Z,3.18
2023-01-30T00:45:13.498Z,3.20
2023-01-30T00:48:00.366Z,3.19
2023-01-30T00:50:46.623Z,3.19
2023-01-30T00:53:32.694Z,3.19
2023-01-30T00:56:19.389Z,3.17
2023-01-30T00:59:08.389Z,3.15
2023-01-30T01:01:54.711Z,3.16
2023-01-30T01:04:43.747Z,3.15
2023-01-30T01:07:31.552Z,3.12
2023-01-30T01:10:17.428Z,3.14
2023-01-30T01:13:04.006Z,3.10
2023-01-30T01:15:50.701Z,3.09
2023-01-30T01:18:38.621Z,3.07
2023-01-30T01:21:25.952Z,3.02
2023-01-30T01:24:13.717Z,3.00
2023-01-30T01:26:59.815Z,2.96
2023-01-30T01:29:48.363Z,2.92
2023-01-30T01:32:35.108Z,2.83
2023-01-30T01:35:23.447Z,2.83
2023-01-30T01:38:09.450Z,2.77
2023-01-30T01:41:06.442Z,2.79
2023-01-30T01:44:02.521Z,2.79
2023-01-30T01:46:57.931Z,2.78
2023-01-30T01:49:44.533Z,2.83
2023-01-30T01:52:30.151Z,2.83
2023-01-30T01:55:17.758Z,2.83
2023-01-30T01:58:08.902Z,2.84
2023-01-30T02:01:00.944Z,2.87
2023-01-30T02:03:51.261Z,2.88
2023-01-30T02:06:39.496Z,2.90
2023-01-30T02:09:25.573Z,2.93
2023-01-30T02:12:12.262Z,2.96
2023-01-30T02:15:01.629Z,2.91
2023-01-30T02:17:47.700Z,2.95
2023-01-30T02:21:06.701Z,2.93
2023-01-30T02:24:01.641Z,2.95
2023-01-30T02:27:00.023Z,2.93
2023-01-30T02:29:48.766Z,2.95
2023-01-30T02:32:50.406Z,2.93
2023-01-30T02:35:51.483Z,2.92
2023-01-30T02:39:14.515Z,2.90
2023-01-30T02:42:04.408Z,2.86
2023-01-30T02:45:09.210Z,2.86
2023-01-30T02:48:01.584Z,2.84
2023-01-30T02:51:03.979Z,2.86
2023-01-30T02:53:50.469Z,2.84
2023-01-30T02:56:58.965Z,2.81
2023-01-30T02:59:49.877Z,2.80
2023-01-30T03:03:10.707Z,2.77
2023-01-30T03:06:04.881Z,2.77
2023-01-30T03:09:15.930Z,2.74
2023-01-30T03:12:17.301Z,2.71
2023-01-30T03:15:10.472Z,2.73
2023-01-30T03:17:57.488Z,2.71
2023-01-30T03:20:44.823Z,2.67
2023-01-30T03:23:31.044Z,2.69
2023-01-30T03:26:20.899Z,2.70
2023-01-30T03:29:06.902Z,2.72
2023-01-30T03:31:53.195Z,2.75
2023-01-30T03:34:39.426Z,2.74
2023-01-30T03:37:27.508Z,2.78
2023-01-30T03:40:14.949Z,2.81
2023-01-30T03:43:01.216Z,2.81
2023-01-30T03:45:49.043Z,2.82
2023-01-30T03:48:35.349Z,2.80
2023-01-30T03:51:21.399Z,2.84
2023-01-30T03:54:07.504Z,2.83
2023-01-30T03:56:53.445Z,2.83
2023-01-30T03:59:40.156Z,2.83
2023-01-30T04:02:28.507Z,2.83
2023-01-30T04:05:18.469Z,2.83
2023-01-30T04:08:10.851Z,2.78
2023-01-30T04:10:56.986Z,2.78
2023-01-30T04:13:43.247Z,2.82
2023-01-30T04:16:29.760Z,2.80
2023-01-30T04:19:34.632Z,2.78
2023-01-30T04:22:20.566Z,2.77
2023-01-30T04:25:07.197Z,2.73
2023-01-30T04:27:53.386Z,2.74
2023-01-30T04:30:46.455Z,2.77
2023-01-30T04:33:52.539Z,2.73
2023-01-30T04:36:38.688Z,2.76
2023-01-30T04:39:25.119Z,2.76
2023-01-30T04:42:11.836Z,2.73
2023-01-30T04:45:07.613Z,2.71
2023-01-30T04:47:56.148Z,2.66
2023-01-30T04:50:43.645Z,2.62
2023-01-30T04:53:29.531Z,2.60
2023-01-30T04:56:15.993Z,2.58
2023-01-30T04:59:02.626Z,2.53
2023-01-30T05:01:55.248Z,2.52
2023-01-30T05:04:41.654Z,2.50
2023-01-30T05:07:27.783Z,2.49
2023-01-30T05:10:13.798Z,2.51
2023-01-30T05:13:05.928Z,2.51
2023-01-30T05:15:51.642Z,2.51
2023-01-30T05:18:37.541Z,2.49
2023-01-30T05:21:28.093Z,2.45
2023-01-30T05:24:14.205Z,2.40
2023-01-30T05:27:15.548Z,2.34
2023-01-30T05:30:06.253Z,2.03
2023-01-30T05:32:52.530Z,2.26
2023-01-30T05:35:38.498Z,2.24
2023-01-30T05:38:24.724Z,2.19
2023-01-30T05:41:12.082Z,2.16
2023-01-30T05:43:58.007Z,2.04
2023-01-30T05:46:43.928Z,2.00
2023-01-30T05:49:29.772Z,1.98
2023-01-30T05:52:15.489Z,1.94
2023-01-30T05:55:01.148Z,1.90
2023-01-30T05:57:46.923Z,1.86
2023-01-30T06:00:32.513Z,1.84
2023-01-30T06:03:18.460Z,1.78
2023-01-30T06:06:06.249Z,1.80
2023-01-30T06:08:56.270Z,1.82
2023-01-30T06:11:41.896Z,1.85
2023-01-30T06:14:27.726Z,1.84
2023-01-30T06:17:13.827Z,1.84
2023-01-30T06:19:59.462Z,1.86
2023-01-30T06:22:48.574Z,1.85
2023-01-30T06:25:34.417Z,1.88
2023-01-30T06:28:20.797Z,1.87
2023-01-30T06:31:07.861Z,1.86
2023-01-30T06:33:54.085Z,1.83
2023-01-30T06:36:39.774Z,1.88
2023-01-30T06:39:25.392Z,1.89
2023-01-30T06:42:11.118Z,1.90
2023-01-30T06:44:57.997Z,1.92
2023-01-30T06:47:48.284Z,1.94
2023-01-30T06:50:35.465Z,1.98
2023-01-30T06:53:22.345Z,1.99
2023-01-30T06:56:09.254Z,2.02
2023-01-30T06:58:55.046Z,2.08
2023-01-30T07:01:41.868Z,2.06
2023-01-30T07:04:27.471Z,2.06
2023-01-30T07:07:15.274Z,2.02
2023-01-30T07:10:08.323Z,2.03
2023-01-30T07:12:55.038Z,2.04
2023-01-30T07:15:40.968Z,2.02
2023-01-30T07:18:26.699Z,2.01
2023-01-30T07:21:12.556Z,2.02
2023-01-30T07:23:59.485Z,2.02
2023-01-30T07:26:48.253Z,2.01
2023-01-30T07:29:38.294Z,2.00
2023-01-30T07:32:24.241Z,1.99
2023-01-30T07:35:10.121Z,2.03
2023-01-30T07:37:56.121Z,2.05
2023-01-30T07:40:41.681Z,2.10
2023-01-30T07:43:27.657Z,2.12
2023-01-30T07:46:13.433Z,2.13
2023-01-30T07:48:59.916Z,2.10
2023-01-30T07:51:46.858Z,2.15
2023-01-30T07:54:32.824Z,2.14
2023-01-30T07:57:18.599Z,2.18
2023-01-30T08:00:05.311Z,2.19
2023-01-30T08:02:55.715Z,2.19
2023-01-30T08:05:41.667Z,2.15
2023-01-30T08:08:27.440Z,2.17
2023-01-30T08:11:13.266Z,2.15
2023-01-30T08:14:00.105Z,2.14
2023-01-30T08:16:46.159Z,2.18
2023-01-30T08:19:32.224Z,2.19
2023-01-30T08:22:18.439Z,2.22
2023-01-30T08:25:04.840Z,2.29
2023-01-30T08:27:50.818Z,2.32
2023-01-30T08:30:37.038Z,2.30
2023-01-30T08:33:24.210Z,2.42
2023-01-30T08:36:10.508Z,2.37
2023-01-30T08:38:56.178Z,2.47
2023-01-30T08:41:44.633Z,2.53
2023-01-30T08:44:30.644Z,2.61
2023-01-30T08:47:16.269Z,2.65
2023-01-30T08:50:02.509Z,2.71
2023-01-30T08:52:48.103Z,2.76
2023-01-30T08:55:34.083Z,2.77
2023-01-30T08:58:21.024Z,2.81
2023-01-30T09:01:07.495Z,2.77
2023-01-30T09:03:53.435Z,2.79
2023-01-30T09:06:40.239Z,2.71
2023-01-30T09:09:26.749Z,2.73
2023-01-30T09:12:12.800Z,2.68
2023-01-30T09:15:00.504Z,2.71
2023-01-30T09:17:46.221Z,2.73
2023-01-30T09:20:32.314Z,2.69
2023-01-30T09:23:18.489Z,2.78
2023-01-30T09:26:05.159Z,2.81
2023-01-30T09:28:52.174Z,2.85
2023-01-30T09:31:38.490Z,2.89
2023-01-30T09:34:28.944Z,2.91
2023-01-30T09:37:15.015Z,2.92
2023-01-30T09:40:00.659Z,2.97
2023-01-30T09:43:13.481Z,2.97
2023-01-30T09:46:09.295Z,3.02
2023-01-30T09:49:05.130Z,3.02
2023-01-30T09:52:21.168Z,3.03
2023-01-30T09:55:27.406Z,3.01
2023-01-30T09:58:24.206Z,3.08
2023-01-30T10:01:17.222Z,3.12
2023-01-30T10:04:25.200Z,3.13
2023-01-30T10:07:11.174Z,3.19
2023-01-30T10:10:38.672Z,3.21
2023-01-30T10:13:32.133Z,3.22
2023-01-30T10:17:01.428Z,3.30
2023-01-30T10:20:31.728Z,3.38
2023-01-30T10:23:41.446Z,3.39
2023-01-30T10:26:28.751Z,3.57
2023-01-30T10:29:17.711Z,3.62
2023-01-30T10:32:14.999Z,3.70
2023-01-30T10:35:19.751Z,3.76
2023-01-30T10:38:21.769Z,3.86
2023-01-30T10:41:15.097Z,3.92
2023-01-30T10:44:09.162Z,4.06
2023-01-30T10:47:41.733Z,4.20
2023-01-30T10:50:44.164Z,4.35
2023-01-30T10:53:44.842Z,4.45
2023-01-30T10:56:42.934Z,4.53
2023-01-30T10:59:41.517Z,4.61
2023-01-30T11:02:51.689Z,4.71
2023-01-30T11:05:47.304Z,4.78
2023-01-30T11:08:35.177Z,4.85
2023-01-30T11:11:49.237Z,4.96
2023-01-30T11:14:58.849Z,5.08
2023-01-30T11:17:45.931Z,5.20
2023-01-30T11:20:31.718Z,5.23
2023-01-30T11:23:47.343Z,5.27
2023-01-30T11:26:46.790Z,5.25
2023-01-30T11:29:35.174Z,5.26
2023-01-30T11:32:28.414Z,5.24
2023-01-30T11:35:14.235Z,5.29
2023-01-30T11:38:13.023Z,5.28
2023-01-30T11:41:18.812Z,5.22
2023-01-30T11:44:05.961Z,5.20
2023-01-30T11:46:52.423Z,5.20
2023-01-30T11:51:31.892Z,5.16
2023-01-30T11:52:53.835Z,5.19
2023-01-30T11:55:41.747Z,5.19
2023-01-30T11:58:34.318Z,5.23
2023-01-30T12:01:20.145Z,5.30
2023-01-30T12:04:08.708Z,5.38
2023-01-30T12:07:11.201Z,5.48
2023-01-30T12:09:58.216Z,5.55
2023-01-30T12:12:48.144Z,5.66
2023-01-30T12:15:35.043Z,5.74
2023-01-30T12:18:28.253Z,5.86
2023-01-30T12:21:45.057Z,5.88
2023-01-30T12:24:45.096Z,5.89
2023-01-30T12:27:49.002Z,5.89
2023-01-30T12:30:45.171Z,5.88
2023-01-30T12:33:34.962Z,5.93
2023-01-30T12:36:46.391Z,6.12
2023-01-30T12:40:18.009Z,6.65
2023-01-30T12:43:29.919Z,7.36
2023-01-30T12:46:47.071Z,7.91
2023-01-30T12:49:47.304Z,8.30
2023-01-30T12:52:51.427Z,8.58
2023-01-30T12:55:52.385Z,8.92
2023-01-30T12:58:46.752Z,9.26
2023-01-30T13:01:44.496Z,9.41
2023-01-30T13:04:56.887Z,9.32
2023-01-30T13:08:33.652Z,9.13
2023-01-30T13:11:29.257Z,8.84
2023-01-30T13:14:18.165Z,8.54
2023-01-30T13:17:25.713Z,8.25
2023-01-30T13:20:38.067Z,7.96
2023-01-30T13:23:39.211Z,7.74
2023-01-30T13:26:31.339Z,7.74
2023-01-30T13:29:36.393Z,7.92
2023-01-30T13:32:36.124Z,8.17
2023-01-30T13:35:26.972Z,8.45
2023-01-30T13:38:18.637Z,8.69
2023-01-30T13:41:05.149Z,9.07
2023-01-30T13:43:53.183Z,9.41
2023-01-30T13:46:39.487Z,9.71
2023-01-30T13:50:03.947Z,9.95
2023-01-30T13:53:01.786Z,10.20
2023-01-30T13:56:02.683Z,10.34
2023-01-30T13:59:10.159Z,10.47
2023-01-30T14:01:59.426Z,10.58
2023-01-30T14:04:56.393Z,10.69
2023-01-30T14:07:42.887Z,10.82
2023-01-30T14:10:33.771Z,11.05
2023-01-30T14:13:19.873Z,11.12
2023-01-30T14:16:06.779Z,11.20
2023-01-30T14:18:52.963Z,11.23
2023-01-30T14:21:45.745Z,11.08
2023-01-30T14:24:31.960Z,10.84
2023-01-30T14:27:31.981Z,10.56
2023-01-30T14:30:56.580Z,10.20
2023-01-30T14:33:50.447Z,9.80
2023-01-30T14:36:37.191Z,9.44
2023-01-30T14:39:42.144Z,9.11
2023-01-30T14:42:31.110Z,8.82
2023-01-30T14:45:20.385Z,8.56
2023-01-30T14:48:40.411Z,8.32
2023-01-30T14:51:44.561Z,8.08
2023-01-30T14:54:41.082Z,7.87
2023-01-30T14:57:32.714Z,7.67
2023-01-30T15:00:21.189Z,7.49
2023-01-30T15:03:15.258Z,7.26
2023-01-30T15:06:01.017Z,7.07
2023-01-30T15:08:47.509Z,6.88
2023-01-30T15:11:34.939Z,6.69
2023-01-30T15:14:54.092Z,6.49
2023-01-30T15:18:08.334Z,6.31
2023-01-30T15:21:37.699Z,6.25
2023-01-30T15:25:00.660Z,6.17
2023-01-30T15:28:12.295Z,6.07
2023-01-30T15:31:13.561Z,5.99
2023-01-30T15:33:59.312Z,5.91
2023-01-30T15:36:46.241Z,5.76
2023-01-30T15:39:32.218Z,5.65
2023-01-30T15:42:18.095Z,5.53
2023-01-30T15:45:17.184Z,5.40
2023-01-30T15:48:42.009Z,5.31
2023-01-30T15:51:29.683Z,5.21
2023-01-30T15:54:18.832Z,5.09
2023-01-30T15:57:05.101Z,5.05
2023-01-30T15:59:53.394Z,4.99
2023-01-30T16:02:39.223Z,4.92
2023-01-30T16:05:26.645Z,4.90
2023-01-30T16:08:24.145Z,4.85
2023-01-30T16:11:10.524Z,4.82
2023-01-30T16:13:58.338Z,4.78
2023-01-30T16:16:47.264Z,4.76
2023-01-30T16:19:35.069Z,4.72
2023-01-30T16:22:21.728Z,4.70
2023-01-30T16:25:17.678Z,4.68
2023-01-30T16:28:03.762Z,4.65
2023-01-30T16:30:59.669Z,4.58
2023-01-30T16:33:52.088Z,4.58
2023-01-30T16:36:43.459Z,4.53
2023-01-30T16:39:33.778Z,4.57
2023-01-30T16:42:25.732Z,4.55
2023-01-30T16:45:11.704Z,4.53
2023-01-30T16:48:16.406Z,4.48
2023-01-30T16:51:02.143Z,4.39
2023-01-30T16:53:58.937Z,4.28
2023-01-30T16:56:51.214Z,4.24
2023-01-30T16:59:37.993Z,4.22
2023-01-30T17:02:30.907Z,4.21
2023-01-30T17:05:27.135Z,4.19
2023-01-30T17:08:31.355Z,4.16
2023-01-30T17:11:29.116Z,4.10
2023-01-30T17:14:14.771Z,4.06
2023-01-30T17:17:08.153Z,3.95
2023-01-30T17:19:55.351Z,3.89
2023-01-30T17:22:43.774Z,3.88
2023-01-30T17:25:35.813Z,3.86
2023-01-30T17:28:27.967Z,3.83
2023-01-30T17:31:15.158Z,3.75
2023-01-30T17:34:00.965Z,3.73
2023-01-30T17:36:47.071Z,3.66
2023-01-30T17:39:34.526Z,3.58
2023-01-30T17:42:22.458Z,3.55
2023-01-30T17:45:11.977Z,3.51
2023-01-30T17:47:57.771Z,3.48
2023-01-30T17:50:43.555Z,3.40
2023-01-30T17:53:29.471Z,3.33
2023-01-30T17:56:18.214Z,3.32
2023-01-30T17:59:16.114Z,3.30
2023-01-30T18:02:02.710Z,3.32
2023-01-30T18:04:49.514Z,3.27
2023-01-30T18:07:35.346Z,3.21
2023-01-30T18:10:22.241Z,3.12
2023-01-30T18:13:08.334Z,3.01
2023-01-30T18:15:57.515Z,2.86
2023-01-30T18:18:43.644Z,2.84
2023-01-30T18:21:30.160Z,2.85
2023-01-30T18:24:19.794Z,2.89
2023-01-30T18:27:05.617Z,2.95
2023-01-30T18:29:57.805Z,2.97
2023-01-30T18:32:52.611Z,3.03
2023-01-30T18:35:39.787Z,3.07
2023-01-30T18:38:25.469Z,3.09
2023-01-30T18:41:18.742Z,3.11
2023-01-30T18:44:06.094Z,3.17
2023-01-30T18:46:52.131Z,3.20
2023-01-30T18:49:37.633Z,3.24
2023-01-30T18:52:23.665Z,3.25
2023-01-30T18:55:09.927Z,3.25
2023-01-30T18:57:55.953Z,3.23
2023-01-30T19:00:41.948Z,3.22
2023-01-30T19:03:32.829Z,3.20
2023-01-30T19:06:19.293Z,3.16
2023-01-30T19:09:07.525Z,3.18
2023-01-30T19:12:14.992Z,3.15
2023-01-30T19:15:01.537Z,3.14
2023-01-30T19:17:47.677Z,3.12
2023-01-30T19:20:33.475Z,3.09
2023-01-30T19:23:19.469Z,3.06
2023-01-30T19:26:05.237Z,2.98
2023-01-30T19:28:52.334Z,2.93
2023-01-30T19:31:38.527Z,2.85
2023-01-30T19:34:26.680Z,2.76
2023-01-30T19:37:12.690Z,2.69
2023-01-30T19:39:58.625Z,2.66
2023-01-30T19:42:44.806Z,2.65
2023-01-30T19:45:32.765Z,2.69
2023-01-30T19:48:18.515Z,2.72
2023-01-30T19:51:23.572Z,2.69
2023-01-30T19:54:10.889Z,2.70
2023-01-30T19:56:59.652Z,2.67
2023-01-30T19:59:46.011Z,2.70
2023-01-30T20:02:32.948Z,2.67
2023-01-30T20:05:20.497Z,2.68
2023-01-30T20:08:07.741Z,2.68
2023-01-30T20:11:22.001Z,2.71
2023-01-30T20:14:08.962Z,2.76
2023-01-30T20:16:54.850Z,2.80
2023-01-30T20:19:40.898Z,2.82
2023-01-30T20:22:26.644Z,2.73
2023-01-30T20:25:12.407Z,2.83
2023-01-30T20:27:58.521Z,2.77
2023-01-30T20:30:44.486Z,2.86
2023-01-30T20:33:31.186Z,2.86
2023-01-30T20:36:19.034Z,2.87
2023-01-30T20:39:08.559Z,2.86
2023-01-30T20:41:54.761Z,2.83
2023-01-30T20:44:40.378Z,2.85
2023-01-30T20:47:26.367Z,2.84
2023-01-30T20:50:13.809Z,2.83
2023-01-30T20:53:00.088Z,2.83
2023-01-30T20:55:45.856Z,2.79
2023-01-30T20:58:31.951Z,2.83
2023-01-30T21:01:22.710Z,2.83
2023-01-30T21:04:11.044Z,2.76
2023-01-30T21:06:56.866Z,2.76
2023-01-30T21:09:42.679Z,2.77
2023-01-30T21:12:30.052Z,2.78
2023-01-30T21:15:15.993Z,2.80
2023-01-30T21:18:02.331Z,2.81
2023-01-30T21:20:49.780Z,2.78
2023-01-30T21:23:36.933Z,2.82
2023-01-30T21:26:24.468Z,2.84
2023-01-30T21:29:11.043Z,2.84
2023-01-30T21:31:58.887Z,2.85
2023-01-30T21:34:44.541Z,2.86
2023-01-30T21:37:49.350Z,2.86
2023-01-30T21:40:54.081Z,2.85
2023-01-30T21:43:40.192Z,2.79
2023-01-30T21:46:25.935Z,2.68
2023-01-30T21:49:12.310Z,2.66
2023-01-30T21:51:58.517Z,2.63
2023-01-30T21:54:44.572Z,2.62
2023-01-30T21:57:30.829Z,2.62
2023-01-30T22:00:17.068Z,2.64
2023-01-30T22:03:05.344Z,2.62
2023-01-30T22:05:51.282Z,2.68
2023-01-30T22:08:37.863Z,2.69
2023-01-30T22:11:24.248Z,2.71
2023-01-30T22:14:15.102Z,2.77
2023-01-30T22:17:01.377Z,2.78
2023-01-30T22:19:47.515Z,2.80
2023-01-30T22:22:33.543Z,2.78
2023-01-30T22:25:19.830Z,2.82
2023-01-30T22:28:05.724Z,2.82
2023-01-30T22:30:54.488Z,2.82
2023-01-30T22:33:46.371Z,2.85
2023-01-30T22:36:33.648Z,2.87
2023-01-30T22:39:19.365Z,2.89
2023-01-30T22:42:05.186Z,2.90
2023-01-30T22:44:51.297Z,2.91
2023-01-30T22:47:37.166Z,2.90
2023-01-30T22:50:23.141Z,2.93
2023-01-30T22:53:08.711Z,2.95
2023-01-30T22:55:54.419Z,2.93
2023-01-30T22:58:40.664Z,2.96
2023-01-30T23:01:29.564Z,2.93
2023-01-30T23:04:18.022Z,2.92
2023-01-30T23:07:03.861Z,2.86
2023-01-30T23:09:49.696Z,2.85
2023-01-30T23:12:53.783Z,2.87
2023-01-30T23:15:42.962Z,2.87
2023-01-30T23:18:47.292Z,2.89
2023-01-30T23:21:59.955Z,2.84
2023-01-30T23:24:45.876Z,2.90
2023-01-30T23:27:31.717Z,2.86
2023-01-30T23:30:17.699Z,2.90
2023-01-30T23:33:04.546Z,2.88
2023-01-30T23:35:50.097Z,2.89
2023-01-30T23:38:36.501Z,2.89
2023-01-30T23:41:27.625Z,2.90
2023-01-30T23:44:13.309Z,2.90
2023-01-30T23:46:58.978Z,2.90
2023-01-30T23:49:44.664Z,2.93
2023-01-30T23:52:31.651Z,2.94
2023-01-30T23:55:17.758Z,2.88
2023-01-30T23:58:04.778Z,2.90
